sensor_id;sensor_type;location;lat;lon;timestamp;pressure;altitude;pressure_sealevel;temperature;humidity
62725;BME280;49026;52.600;4.694;2023-10-13T00:02:04;101042.78;;;16.29;100.00
62725;BME280;49026;52.600;4.694;2023-10-13T00:04:31;101044.47;;;16.30;100.00
62725;BME280;49026;52.600;4.694;2023-10-13T00:07:03;101044.38;;;16.32;100.00
62725;BME280;49026;52.600;4.694;2023-10-13T00:09:29;101043.44;;;16.33;100.00
62725;BME280;49026;52.600;4.694;2023-10-13T00:11:59;101029.22;;;16.34;100.00
62725;BME280;49026;52.600;4.694;2023-10-13T00:14:25;101035.41;;;16.34;100.00
62725;BME280;49026;52.600;4.694;2023-10-13T00:17:05;101024.69;;;16.36;100.00
62725;BME280;49026;52.600;4.694;2023-10-13T00:19:41;101026.38;;;16.37;100.00
62725;BME280;49026;52.600;4.694;2023-10-13T00:22:11;101018.44;;;16.37;100.00
62725;BME280;49026;52.600;4.694;2023-10-13T00:24:40;101012.28;;;16.36;100.00
62725;BME280;49026;52.600;4.694;2023-10-13T00:29:56;101002.69;;;16.34;100.00
62725;BME280;49026;52.600;4.694;2023-10-13T00:32:44;101008.78;;;16.36;100.00
62725;BME280;49026;52.600;4.694;2023-10-13T00:35:13;100991.06;;;16.36;100.00
62725;BME280;49026;52.600;4.694;2023-10-13T00:37:50;100990.22;;;16.36;100.00
62725;BME280;49026;52.600;4.694;2023-10-13T00:40:21;100990.22;;;16.36;100.00
62725;BME280;49026;52.600;4.694;2023-10-13T00:42:59;100986.50;;;16.38;100.00
62725;BME280;49026;52.600;4.694;2023-10-13T00:45:51;100981.31;;;16.37;100.00
62725;BME280;49026;52.600;4.694;2023-10-13T00:48:23;100974.31;;;16.36;100.00
62725;BME280;49026;52.600;4.694;2023-10-13T00:50:55;100970.88;;;16.34;100.00
62725;BME280;49026;52.600;4.694;2023-10-13T00:53:23;100968.44;;;16.30;100.00
62725;BME280;49026;52.600;4.694;2023-10-13T00:55:50;100972.13;;;16.28;100.00
62725;BME280;49026;52.600;4.694;2023-10-13T00:58:16;100974.03;;;16.26;100.00
62725;BME280;49026;52.600;4.694;2023-10-13T01:00:48;100959.06;;;16.25;100.00
62725;BME280;49026;52.600;4.694;2023-10-13T01:03:13;100957.38;;;16.24;100.00
62725;BME280;49026;52.600;4.694;2023-10-13T01:05:40;100961.69;;;16.25;100.00
62725;BME280;49026;52.600;4.694;2023-10-13T01:08:09;100954.72;;;16.24;100.00
62725;BME280;49026;52.600;4.694;2023-10-13T01:10:37;100945.88;;;16.23;100.00
62725;BME280;49026;52.600;4.694;2023-10-13T01:13:06;100950.34;;;16.23;100.00
62725;BME280;49026;52.600;4.694;2023-10-13T01:15:32;100935.38;;;16.22;100.00
62725;BME280;49026;52.600;4.694;2023-10-13T01:18:11;100941.75;;;16.19;100.00
62725;BME280;49026;52.600;4.694;2023-10-13T01:20:38;100938.34;;;16.17;100.00
62725;BME280;49026;52.600;4.694;2023-10-13T01:23:17;100940.22;;;16.15;100.00
62725;BME280;49026;52.600;4.694;2023-10-13T01:25:55;100926.19;;;16.13;100.00
62725;BME280;49026;52.600;4.694;2023-10-13T01:28:23;100917.41;;;16.13;100.00
62725;BME280;49026;52.600;4.694;2023-10-13T01:30:49;100925.53;;;16.09;100.00
62725;BME280;49026;52.600;4.694;2023-10-13T01:33:18;100919.50;;;16.07;100.00
62725;BME280;49026;52.600;4.694;2023-10-13T01:35:54;100914.28;;;16.06;100.00
62725;BME280;49026;52.600;4.694;2023-10-13T01:38:20;100918.72;;;16.05;100.00
62725;BME280;49026;52.600;4.694;2023-10-13T01:40:48;100916.19;;;16.04;100.00
62725;BME280;49026;52.600;4.694;2023-10-13T01:43:16;100914.66;;;16.00;100.00
62725;BME280;49026;52.600;4.694;2023-10-13T01:45:47;100914.56;;;16.01;100.00
62725;BME280;49026;52.600;4.694;2023-10-13T01:48:12;100905.78;;;16.01;100.00
62725;BME280;49026;52.600;4.694;2023-10-13T01:50:48;100903.13;;;16.01;100.00
62725;BME280;49026;52.600;4.694;2023-10-13T01:53:20;100899.59;;;16.00;100.00
62725;BME280;49026;52.600;4.694;2023-10-13T01:55:45;100891.56;;;16.02;100.00
62725;BME280;49026;52.600;4.694;2023-10-13T01:58:11;100888.06;;;16.01;100.00
62725;BME280;49026;52.600;4.694;2023-10-13T02:00:47;100881.81;;;16.02;100.00
62725;BME280;49026;52.600;4.694;2023-10-13T02:03:16;100876.53;;;16.02;100.00
62725;BME280;49026;52.600;4.694;2023-10-13T02:05:48;100872.91;;;16.03;100.00
62725;BME280;49026;52.600;4.694;2023-10-13T02:08:22;100876.31;;;16.05;100.00
62725;BME280;49026;52.600;4.694;2023-10-13T02:10:55;100870.06;;;16.06;100.00
62725;BME280;49026;52.600;4.694;2023-10-13T02:13:27;100856.81;;;16.06;100.00
62725;BME280;49026;52.600;4.694;2023-10-13T02:16:02;100855.88;;;16.07;100.00
62725;BME280;49026;52.600;4.694;2023-10-13T02:18:29;100847.94;;;16.07;100.00
62725;BME280;49026;52.600;4.694;2023-10-13T02:21:07;100847.06;;;16.07;100.00
62725;BME280;49026;52.600;4.694;2023-10-13T02:23:41;100848.97;;;16.05;100.00
62725;BME280;49026;52.600;4.694;2023-10-13T02:26:13;100834.97;;;16.03;100.00
62725;BME280;49026;52.600;4.694;2023-10-13T02:28:55;100831.56;;;16.01;100.00
62725;BME280;49026;52.600;4.694;2023-10-13T02:31:22;100830.03;;;15.97;100.00
62725;BME280;49026;52.600;4.694;2023-10-13T02:33:49;100825.81;;;15.94;100.00
62725;BME280;49026;52.600;4.694;2023-10-13T02:36:14;100816.22;;;15.91;100.00
62725;BME280;49026;52.600;4.694;2023-10-13T02:38:47;100807.53;;;15.89;100.00
62725;BME280;49026;52.600;4.694;2023-10-13T02:41:14;100804.88;;;15.89;100.00
62725;BME280;49026;52.600;4.694;2023-10-13T02:43:53;100806.59;;;15.90;100.00
62725;BME280;49026;52.600;4.694;2023-10-13T02:46:19;100800.13;;;15.95;100.00
62725;BME280;49026;52.600;4.694;2023-10-13T02:48:47;100792.00;;;15.98;100.00
62725;BME280;49026;52.600;4.694;2023-10-13T02:51:20;100790.94;;;16.00;100.00
62725;BME280;49026;52.600;4.694;2023-10-13T02:53:51;100789.91;;;16.03;100.00
62725;BME280;49026;52.600;4.694;2023-10-13T02:56:18;100788.84;;;16.05;100.00
62725;BME280;49026;52.600;4.694;2023-10-13T02:58:48;100767.53;;;16.07;100.00
62725;BME280;49026;52.600;4.694;2023-10-13T03:01:23;100765.75;;;16.07;100.00
62725;BME280;49026;52.600;4.694;2023-10-13T03:04:02;100757.72;;;16.09;100.00
62725;BME280;49026;52.600;4.694;2023-10-13T03:06:28;100757.72;;;16.09;100.00
62725;BME280;49026;52.600;4.694;2023-10-13T03:09:01;100744.47;;;16.09;100.00
62725;BME280;49026;52.600;4.694;2023-10-13T03:11:41;100723.25;;;16.09;100.00
62725;BME280;49026;52.600;4.694;2023-10-13T03:14:17;100720.59;;;16.09;100.00
62725;BME280;49026;52.600;4.694;2023-10-13T03:16:57;100717.97;;;16.09;100.00
62725;BME280;49026;52.600;4.694;2023-10-13T03:19:42;100710.09;;;16.07;100.00
62725;BME280;49026;52.600;4.694;2023-10-13T03:22:11;100703.00;;;16.08;100.00
62725;BME280;49026;52.600;4.694;2023-10-13T03:24:40;100685.47;;;16.05;100.00
62725;BME280;49026;52.600;4.694;2023-10-13T03:27:18;100690.13;;;16.02;100.00
62725;BME280;49026;52.600;4.694;2023-10-13T03:29:50;100668.19;;;16.00;100.00
62725;BME280;49026;52.600;4.694;2023-10-13T03:32:20;100671.91;;;15.97;100.00
62725;BME280;49026;52.600;4.694;2023-10-13T03:34:53;100672.94;;;15.95;100.00
62725;BME280;49026;52.600;4.694;2023-10-13T03:37:24;100660.63;;;15.93;100.00
62725;BME280;49026;52.600;4.694;2023-10-13T03:40:08;100655.44;;;15.92;100.00
62725;BME280;49026;52.600;4.694;2023-10-13T03:42:56;100653.84;;;15.89;100.00
62725;BME280;49026;52.600;4.694;2023-10-13T03:45:40;100644.38;;;15.85;100.00
62725;BME280;49026;52.600;4.694;2023-10-13T03:48:16;100631.38;;;15.82;100.00
62725;BME280;49026;52.600;4.694;2023-10-13T03:50:58;100629.84;;;15.78;100.00
62725;BME280;49026;52.600;4.694;2023-10-13T03:53:38;100626.63;;;15.73;100.00
62725;BME280;49026;52.600;4.694;2023-10-13T03:56:18;100621.59;;;15.68;100.00
62725;BME280;49026;52.600;4.694;2023-10-13T03:58:57;100609.63;;;15.63;100.00
62725;BME280;49026;52.600;4.694;2023-10-13T04:01:33;100601.13;;;15.57;100.00
62725;BME280;49026;52.600;4.694;2023-10-13T04:04:08;100606.19;;;15.48;100.00
62725;BME280;49026;52.600;4.694;2023-10-13T04:06:37;100597.69;;;15.43;100.00
62725;BME280;49026;52.600;4.694;2023-10-13T04:09:18;100582.94;;;15.38;100.00
62725;BME280;49026;52.600;4.694;2023-10-13T04:12:00;100569.91;;;15.35;100.00
62725;BME280;49026;52.600;4.694;2023-10-13T04:14:35;100563.09;;;15.31;100.00
62725;BME280;49026;52.600;4.694;2023-10-13T04:17:20;100567.75;;;15.28;100.00
62725;BME280;49026;52.600;4.694;2023-10-13T04:19:57;100570.69;;;15.23;100.00
62725;BME280;49026;52.600;4.694;2023-10-13T04:22:37;100562.09;;;15.19;100.00
62725;BME280;49026;52.600;4.694;2023-10-13T04:25:25;100552.56;;;15.17;100.00
62725;BME280;49026;52.600;4.694;2023-10-13T04:28:12;100551.69;;;15.16;100.00
62725;BME280;49026;52.600;4.694;2023-10-13T04:33:27;100538.47;;;15.16;100.00
62725;BME280;49026;52.600;4.694;2023-10-13T04:36:13;100534.88;;;15.17;100.00
62725;BME280;49026;52.600;4.694;2023-10-13T04:38:43;100530.44;;;15.18;100.00
62725;BME280;49026;52.600;4.694;2023-10-13T04:41:28;100512.00;;;15.16;100.00
62725;BME280;49026;52.600;4.694;2023-10-13T04:44:14;100508.59;;;15.14;100.00
62725;BME280;49026;52.600;4.694;2023-10-13T04:46:48;100510.50;;;15.12;100.00
62725;BME280;49026;52.600;4.694;2023-10-13T04:49:14;100510.50;;;15.12;100.00
62725;BME280;49026;52.600;4.694;2023-10-13T04:52:07;100487.63;;;15.11;100.00
62725;BME280;49026;52.600;4.694;2023-10-13T04:54:40;100490.28;;;15.11;100.00
62725;BME280;49026;52.600;4.694;2023-10-13T04:57:24;100483.94;;;15.14;100.00
62725;BME280;49026;52.600;4.694;2023-10-13T04:59:56;100461.91;;;15.13;100.00
62725;BME280;49026;52.600;4.694;2023-10-13T05:02:40;100470.63;;;15.15;100.00
62725;BME280;49026;52.600;4.694;2023-10-13T05:05:11;100478.38;;;15.18;100.00
62725;BME280;49026;52.600;4.694;2023-10-13T05:07:44;100476.25;;;15.24;100.00
62725;BME280;49026;52.600;4.694;2023-10-13T05:10:32;100480.28;;;15.29;100.00
62725;BME280;49026;52.600;4.694;2023-10-13T05:13:16;100464.00;;;15.35;100.00
62725;BME280;49026;52.600;4.694;2023-10-13T05:16:00;100454.59;;;15.44;100.00
62725;BME280;49026;52.600;4.694;2023-10-13T05:18:44;100464.69;;;15.52;100.00
62725;BME280;49026;52.600;4.694;2023-10-13T05:21:28;100465.78;;;15.62;100.00
62725;BME280;49026;52.600;4.694;2023-10-13T05:24:12;100451.69;;;15.74;100.00
62725;BME280;49026;52.600;4.694;2023-10-13T05:26:56;100476.63;;;15.85;100.00
62725;BME280;49026;52.600;4.694;2023-10-13T05:29:41;100464.53;;;15.93;100.00
62725;BME280;49026;52.600;4.694;2023-10-13T05:32:25;100480.47;;;16.06;100.00
62725;BME280;49026;52.600;4.694;2023-10-13T05:35:11;100471.13;;;16.14;100.00
62725;BME280;49026;52.600;4.694;2023-10-13T05:37:55;100476.22;;;16.17;100.00
62725;BME280;49026;52.600;4.694;2023-10-13T05:41:00;100470.19;;;16.15;100.00
62725;BME280;49026;52.600;4.694;2023-10-13T05:43:44;100461.81;;;16.08;100.00
62725;BME280;49026;52.600;4.694;2023-10-13T05:46:33;100466.88;;;15.98;100.00
62725;BME280;49026;52.600;4.694;2023-10-13T05:49:06;100448.66;;;15.81;100.00
62725;BME280;49026;52.600;4.694;2023-10-13T05:51:36;100441.59;;;15.67;100.00
62725;BME280;49026;52.600;4.694;2023-10-13T05:54:12;100421.16;;;15.56;100.00
62725;BME280;49026;52.600;4.694;2023-10-13T05:56:40;100424.84;;;15.53;100.00
62725;BME280;49026;52.600;4.694;2023-10-13T05:59:26;100422.09;;;15.55;100.00
62725;BME280;49026;52.600;4.694;2023-10-13T06:02:26;100424.84;;;15.53;100.00
62725;BME280;49026;52.600;4.694;2023-10-13T06:05:11;100417.34;;;15.47;100.00
62725;BME280;49026;52.600;4.694;2023-10-13T06:07:56;100415.94;;;15.42;100.00
62725;BME280;49026;52.600;4.694;2023-10-13T06:10:41;100423.03;;;15.41;100.00
62725;BME280;49026;52.600;4.694;2023-10-13T06:13:25;100408.84;;;15.42;100.00
62725;BME280;49026;52.600;4.694;2023-10-13T06:16:15;100407.69;;;15.46;100.00
62725;BME280;49026;52.600;4.694;2023-10-13T06:18:59;100404.00;;;15.49;100.00
62725;BME280;49026;52.600;4.694;2023-10-13T06:21:46;100411.75;;;15.52;100.00
62725;BME280;49026;52.600;4.694;2023-10-13T06:24:30;100401.78;;;15.55;100.00
62725;BME280;49026;52.600;4.694;2023-10-13T06:27:15;100404.31;;;15.57;100.00
62725;BME280;49026;52.600;4.694;2023-10-13T06:30:02;100400.72;;;15.58;100.00
62725;BME280;49026;52.600;4.694;2023-10-13T06:32:29;100386.41;;;15.61;100.00
62725;BME280;49026;52.600;4.694;2023-10-13T06:34:56;100371.06;;;15.66;100.00
62725;BME280;49026;52.600;4.694;2023-10-13T06:37:32;100371.78;;;15.68;100.00
62725;BME280;49026;52.600;4.694;2023-10-13T06:40:03;100372.75;;;15.67;100.00
62725;BME280;49026;52.600;4.694;2023-10-13T06:42:48;100369.66;;;15.60;100.00
62725;BME280;49026;52.600;4.694;2023-10-13T06:45:13;100368.50;;;15.51;100.00
62725;BME280;49026;52.600;4.694;2023-10-13T06:47:42;100367.13;;;15.46;100.00
62725;BME280;49026;52.600;4.694;2023-10-13T06:50:14;100354.94;;;15.43;100.00
62725;BME280;49026;52.600;4.694;2023-10-13T06:53:00;100347.97;;;15.42;100.00
62725;BME280;49026;52.600;4.694;2023-10-13T06:55:27;100347.00;;;15.43;100.00
62725;BME280;49026;52.600;4.694;2023-10-13T06:57:54;100355.81;;;15.44;100.00
62725;BME280;49026;52.600;4.694;2023-10-13T07:00:25;100335.47;;;15.44;100.00
62725;BME280;49026;52.600;4.694;2023-10-13T07:02:55;100347.88;;;15.44;100.00
62725;BME280;49026;52.600;4.694;2023-10-13T07:05:34;100340.03;;;15.42;100.00
62725;BME280;49026;52.600;4.694;2023-10-13T07:08:00;100338.31;;;15.41;100.00
62725;BME280;49026;52.600;4.694;2023-10-13T07:10:32;100332.28;;;15.39;100.00
62725;BME280;49026;52.600;4.694;2023-10-13T07:13:10;100343.19;;;15.34;100.00
62725;BME280;49026;52.600;4.694;2023-10-13T07:15:36;100326.56;;;15.32;100.00
62725;BME280;49026;52.600;4.694;2023-10-13T07:18:10;100319.56;;;15.31;100.00
62725;BME280;49026;52.600;4.694;2023-10-13T07:20:38;100322.31;;;15.30;100.00
62725;BME280;49026;52.600;4.694;2023-10-13T07:23:09;100302.09;;;15.29;100.00
62725;BME280;49026;52.600;4.694;2023-10-13T07:25:37;100290.66;;;15.28;100.00
62725;BME280;49026;52.600;4.694;2023-10-13T07:28:06;100294.16;;;15.29;100.00
62725;BME280;49026;52.600;4.694;2023-10-13T07:30:35;100290.53;;;15.30;100.00
62725;BME280;49026;52.600;4.694;2023-10-13T07:33:14;100281.66;;;15.31;100.00
62725;BME280;49026;52.600;4.694;2023-10-13T07:35:39;100290.34;;;15.33;100.00
62725;BME280;49026;52.600;4.694;2023-10-13T07:38:09;100293.72;;;15.35;100.00
62725;BME280;49026;52.600;4.694;2023-10-13T07:40:34;100299.78;;;15.37;100.00
62725;BME280;49026;52.600;4.694;2023-10-13T07:43:00;100285.38;;;15.41;100.00
62725;BME280;49026;52.600;4.694;2023-10-13T07:45:37;100283.97;;;15.48;100.00
62725;BME280;49026;52.600;4.694;2023-10-13T07:48:07;100281.03;;;15.53;100.00
62725;BME280;49026;52.600;4.694;2023-10-13T07:50:40;100277.84;;;15.61;100.00
62725;BME280;49026;52.600;4.694;2023-10-13T07:53:06;100279.94;;;15.68;100.00
62725;BME280;49026;52.600;4.694;2023-10-13T07:55:46;100276.78;;;15.76;100.00
62725;BME280;49026;52.600;4.694;2023-10-13T07:58:14;100275.91;;;15.88;100.00
62725;BME280;49026;52.600;4.694;2023-10-13T08:00:40;100273.03;;;15.91;100.00
62725;BME280;49026;52.600;4.694;2023-10-13T08:03:11;100273.34;;;16.00;100.00
62725;BME280;49026;52.600;4.694;2023-10-13T08:05:40;100261.09;;;16.10;100.00
62725;BME280;49026;52.600;4.694;2023-10-13T08:08:21;100244.56;;;16.19;100.00
62725;BME280;49026;52.600;4.694;2023-10-13T08:10:49;100242.06;;;16.29;100.00
62725;BME280;49026;52.600;4.694;2023-10-13T08:13:16;100248.50;;;16.38;100.00
62725;BME280;49026;52.600;4.694;2023-10-13T08:15:43;100233.59;;;16.48;100.00
62725;BME280;49026;52.600;4.694;2023-10-13T08:18:13;100233.88;;;16.56;100.00
62725;BME280;49026;52.600;4.694;2023-10-13T08:21:01;100240.06;;;16.68;100.00
62725;BME280;49026;52.600;4.694;2023-10-13T08:23:30;100224.28;;;16.78;100.00
62725;BME280;49026;52.600;4.694;2023-10-13T08:26:17;100226.75;;;16.92;100.00
62725;BME280;49026;52.600;4.694;2023-10-13T08:28:56;100216.28;;;17.02;100.00
62725;BME280;49026;52.600;4.694;2023-10-13T08:31:22;100219.06;;;17.12;100.00
62725;BME280;49026;52.600;4.694;2023-10-13T08:33:49;100204.13;;;17.22;100.00
62725;BME280;49026;52.600;4.694;2023-10-13T08:36:15;100202.56;;;17.31;100.00
62725;BME280;49026;52.600;4.694;2023-10-13T08:38:51;100193.16;;;17.38;100.00
62725;BME280;49026;52.600;4.694;2023-10-13T08:41:17;100196.88;;;17.47;100.00
62725;BME280;49026;52.600;4.694;2023-10-13T08:43:43;100184.06;;;17.52;100.00
62725;BME280;49026;52.600;4.694;2023-10-13T08:46:13;100193.22;;;17.59;100.00
62725;BME280;49026;52.600;4.694;2023-10-13T08:48:50;100193.97;;;17.61;98.73
62725;BME280;49026;52.600;4.694;2023-10-13T08:51:17;100180.47;;;17.64;99.04
62725;BME280;49026;52.600;4.694;2023-10-13T08:54:04;100182.00;;;17.67;99.90
62725;BME280;49026;52.600;4.694;2023-10-13T08:56:43;100180.94;;;17.69;98.38
62725;BME280;49026;52.600;4.694;2023-10-13T08:59:12;100148.06;;;17.70;97.31
62725;BME280;49026;52.600;4.694;2023-10-13T09:01:47;100155.66;;;17.75;95.18
62725;BME280;49026;52.600;4.694;2023-10-13T09:04:25;100160.59;;;17.80;95.51
62725;BME280;49026;52.600;4.694;2023-10-13T09:07:02;100157.44;;;17.86;96.59
62725;BME280;49026;52.600;4.694;2023-10-13T09:09:46;100138.81;;;17.97;93.48
62725;BME280;49026;52.600;4.694;2023-10-13T09:12:15;100146.66;;;18.10;93.55
62725;BME280;49026;52.600;4.694;2023-10-13T09:14:42;100149.84;;;18.25;97.00
62725;BME280;49026;52.600;4.694;2023-10-13T09:17:12;100154.13;;;18.37;96.06
62725;BME280;49026;52.600;4.694;2023-10-13T09:20:05;100157.00;;;18.45;94.52
62725;BME280;49026;52.600;4.694;2023-10-13T09:22:49;100161.69;;;18.53;95.58
62725;BME280;49026;52.600;4.694;2023-10-13T09:25:36;100151.88;;;18.54;92.38
62725;BME280;49026;52.600;4.694;2023-10-13T09:28:14;100161.28;;;18.58;97.72
62725;BME280;49026;52.600;4.694;2023-10-13T09:30:52;100149.66;;;18.59;94.14
62725;BME280;49026;52.600;4.694;2023-10-13T09:33:23;100146.47;;;18.65;96.00
62725;BME280;49026;52.600;4.694;2023-10-13T09:38:32;100141.81;;;18.78;92.54
62725;BME280;49026;52.600;4.694;2023-10-13T09:40:58;100146.09;;;18.91;96.37
62725;BME280;49026;52.600;4.694;2023-10-13T09:43:29;100160.22;;;19.12;95.46
62725;BME280;49026;52.600;4.694;2023-10-13T09:45:59;100139.84;;;19.42;96.29
62725;BME280;49026;52.600;4.694;2023-10-13T09:48:35;100141.97;;;19.48;97.80
62725;BME280;49026;52.600;4.694;2023-10-13T09:51:12;100146.06;;;19.62;99.04
62725;BME280;49026;52.600;4.694;2023-10-13T09:53:40;100130.16;;;19.91;99.06
62725;BME280;49026;52.600;4.694;2023-10-13T09:56:12;100110.66;;;20.01;92.47
62725;BME280;49026;52.600;4.694;2023-10-13T09:59:11;100112.63;;;19.98;92.19
62725;BME280;49026;52.600;4.694;2023-10-13T10:01:43;100116.97;;;19.90;89.80
62725;BME280;49026;52.600;4.694;2023-10-13T10:04:16;100116.09;;;19.79;90.49
62725;BME280;49026;52.600;4.694;2023-10-13T10:09:18;100117.13;;;19.88;93.91
62725;BME280;49026;52.600;4.694;2023-10-13T10:17:05;100091.41;;;19.87;88.45
62725;BME280;49026;52.600;4.694;2023-10-13T10:19:50;100094.50;;;19.83;89.30
62725;BME280;49026;52.600;4.694;2023-10-13T10:22:33;100111.44;;;19.62;90.25
62725;BME280;49026;52.600;4.694;2023-10-13T10:25:05;100102.84;;;19.49;91.18
62725;BME280;49026;52.600;4.694;2023-10-13T10:28:00;100091.75;;;19.43;90.21
62725;BME280;49026;52.600;4.694;2023-10-13T10:30:30;100111.91;;;19.27;91.27
62725;BME280;49026;52.600;4.694;2023-10-13T10:32:59;100100.09;;;19.19;92.02
62725;BME280;49026;52.600;4.694;2023-10-13T10:35:25;100087.59;;;19.10;91.11
62725;BME280;49026;52.600;4.694;2023-10-13T10:43:18;100107.34;;;18.77;91.82
62725;BME280;49026;52.600;4.694;2023-10-13T10:45:48;100103.53;;;18.79;90.07
62725;BME280;49026;52.600;4.694;2023-10-13T10:48:19;100087.53;;;18.91;89.55
62725;BME280;49026;52.600;4.694;2023-10-13T10:50:53;100091.19;;;18.99;87.48
62725;BME280;49026;52.600;4.694;2023-10-13T10:53:30;100084.38;;;19.06;87.95
62725;BME280;49026;52.600;4.694;2023-10-13T10:56:08;100098.97;;;19.12;87.28
62725;BME280;49026;52.600;4.694;2023-10-13T10:58:48;100089.44;;;19.19;84.78
62725;BME280;49026;52.600;4.694;2023-10-13T11:01:23;100080.78;;;19.27;87.73
62725;BME280;49026;52.600;4.694;2023-10-13T11:03:56;100058.81;;;19.35;91.08
62725;BME280;49026;52.600;4.694;2023-10-13T11:06:33;100064.56;;;19.40;85.73
62725;BME280;49026;52.600;4.694;2023-10-13T11:09:04;100038.78;;;19.50;88.25
62725;BME280;49026;52.600;4.694;2023-10-13T11:11:34;100036.81;;;19.52;84.92
62725;BME280;49026;52.600;4.694;2023-10-13T11:14:01;100055.19;;;19.55;90.02
62725;BME280;49026;52.600;4.694;2023-10-13T11:16:45;100059.53;;;19.56;87.72
62725;BME280;49026;52.600;4.694;2023-10-13T11:19:15;100037.09;;;19.59;89.85
62725;BME280;49026;52.600;4.694;2023-10-13T11:21:45;100046.22;;;19.56;87.71
62725;BME280;49026;52.600;4.694;2023-10-13T11:24:10;100046.22;;;19.56;86.85
62725;BME280;49026;52.600;4.694;2023-10-13T11:26:38;100042.13;;;19.52;86.55
62725;BME280;49026;52.600;4.694;2023-10-13T11:29:30;100023.06;;;19.47;85.07
62725;BME280;49026;52.600;4.694;2023-10-13T11:31:55;100026.69;;;19.46;83.93
62725;BME280;49026;52.600;4.694;2023-10-13T11:34:27;100048.72;;;19.48;83.80
62725;BME280;49026;52.600;4.694;2023-10-13T11:37:04;100033.59;;;19.58;87.94
62725;BME280;49026;52.600;4.694;2023-10-13T11:39:50;100027.56;;;19.56;85.21
62725;BME280;49026;52.600;4.694;2023-10-13T11:42:17;100047.03;;;19.47;86.50
62725;BME280;49026;52.600;4.694;2023-10-13T11:44:42;100034.13;;;19.42;88.05
62725;BME280;49026;52.600;4.694;2023-10-13T11:47:13;100056.00;;;19.36;86.25
62725;BME280;49026;52.600;4.694;2023-10-13T11:49:57;100063.81;;;19.18;87.81
62725;BME280;49026;52.600;4.694;2023-10-13T11:52:24;100075.97;;;18.80;88.81
62725;BME280;49026;52.600;4.694;2023-10-13T11:54:55;100063.81;;;18.57;89.99
62725;BME280;49026;52.600;4.694;2023-10-13T11:57:20;100055.38;;;18.51;91.32
62725;BME280;49026;52.600;4.694;2023-10-13T11:59:49;100045.59;;;18.52;90.93
62725;BME280;49026;52.600;4.694;2023-10-13T12:02:21;100034.75;;;18.44;90.95
62725;BME280;49026;52.600;4.694;2023-10-13T12:04:49;100048.88;;;18.35;90.36
62725;BME280;49026;52.600;4.694;2023-10-13T12:07:20;100045.88;;;18.07;90.46
62725;BME280;49026;52.600;4.694;2023-10-13T12:09:48;100027.22;;;17.86;92.66
62725;BME280;49026;52.600;4.694;2023-10-13T12:12:33;100012.63;;;17.80;93.62
62725;BME280;49026;52.600;4.694;2023-10-13T12:15:10;100025.31;;;17.88;94.01
62725;BME280;49026;52.600;4.694;2023-10-13T12:17:50;100037.84;;;17.86;92.76
62725;BME280;49026;52.600;4.694;2023-10-13T12:20:15;99998.06;;;17.74;92.69
62725;BME280;49026;52.600;4.694;2023-10-13T12:22:50;100031.19;;;17.59;93.13
62725;BME280;49026;52.600;4.694;2023-10-13T12:25:20;100031.50;;;17.45;93.81
62725;BME280;49026;52.600;4.694;2023-10-13T12:27:58;100001.94;;;17.38;95.24
62725;BME280;49026;52.600;4.694;2023-10-13T12:30:31;100024.28;;;17.35;95.58
62725;BME280;49026;52.600;4.694;2023-10-13T12:33:14;100025.63;;;17.30;95.75
62725;BME280;49026;52.600;4.694;2023-10-13T12:35:42;100011.88;;;17.25;96.85
62725;BME280;49026;52.600;4.694;2023-10-13T12:38:24;100009.34;;;17.23;97.24
62725;BME280;49026;52.600;4.694;2023-10-13T12:41:22;100012.72;;;17.25;96.96
62725;BME280;49026;52.600;4.694;2023-10-13T12:44:06;100012.47;;;17.28;98.08
62725;BME280;49026;52.600;4.694;2023-10-13T12:46:53;99981.53;;;17.38;98.48
62725;BME280;49026;52.600;4.694;2023-10-13T12:49:39;99984.16;;;17.50;97.65
62725;BME280;49026;52.600;4.694;2023-10-13T12:52:08;99976.41;;;17.58;96.10
62725;BME280;49026;52.600;4.694;2023-10-13T12:54:59;100004.78;;;17.57;95.87
62725;BME280;49026;52.600;4.694;2023-10-13T12:57:32;100008.28;;;17.58;96.79
62725;BME280;49026;52.600;4.694;2023-10-13T12:59:58;99986.19;;;17.57;96.51
62725;BME280;49026;52.600;4.694;2023-10-13T13:02:24;100008.97;;;17.60;96.12
62725;BME280;49026;52.600;4.694;2023-10-13T13:04:56;99997.16;;;17.64;97.12
62725;BME280;49026;52.600;4.694;2023-10-13T13:07:26;99980.16;;;17.76;97.16
62725;BME280;49026;52.600;4.694;2023-10-13T13:10:02;99975.78;;;17.87;96.70
62725;BME280;49026;52.600;4.694;2023-10-13T13:12:27;99952.78;;;17.97;97.37
62725;BME280;49026;52.600;4.694;2023-10-13T13:14:57;99983.63;;;18.09;96.22
62725;BME280;49026;52.600;4.694;2023-10-13T13:17:24;99981.31;;;18.26;95.60
62725;BME280;49026;52.600;4.694;2023-10-13T13:19:50;99984.34;;;18.42;94.78
62725;BME280;49026;52.600;4.694;2023-10-13T13:22:15;99988.63;;;18.55;94.38
62725;BME280;49026;52.600;4.694;2023-10-13T13:24:43;99965.56;;;18.65;94.13
62725;BME280;49026;52.600;4.694;2023-10-13T13:27:14;99991.47;;;18.73;93.77
62725;BME280;49026;52.600;4.694;2023-10-13T13:29:43;99974.53;;;18.74;93.29
62725;BME280;49026;52.600;4.694;2023-10-13T13:32:08;99931.09;;;18.63;93.17
62725;BME280;49026;52.600;4.694;2023-10-13T13:34:43;99999.59;;;18.40;92.92
62725;BME280;49026;52.600;4.694;2023-10-13T13:37:08;99996.38;;;18.15;93.87
62725;BME280;49026;52.600;4.694;2023-10-13T13:39:38;99985.66;;;17.96;95.12
62725;BME280;49026;52.600;4.694;2023-10-13T13:42:08;99966.59;;;17.91;97.02
62725;BME280;49026;52.600;4.694;2023-10-13T13:44:34;99962.00;;;17.93;97.92